Time;durP1;ratioP1;P1;durP2;ratioP2;P2;SDS_P1;SDS_P2;PMS_P1;PMS_P2;Temp;Humidity;BMP_temperature;BMP_pressure;BME280_temperature;BME280_humidity;BME280_pressure;Samples;Min_cycle;Max_cycle;Signal;HPM_P1;HPM_P2
2023/04/25 00:01:44;;;;;;;11.02;3.63;;;;;;;6.23;94.68;101053.09;4968250;28;20394;-65
2023/04/25 00:04:11;;;;;;;11.15;4.10;;;;;;;6.22;94.37;101051.31;4986547;28;20023;-65
2023/04/25 00:06:36;;;;;;;12.30;3.90;;;;;;;6.21;93.99;101057.28;4968388;28;20037;-65
2023/04/25 00:09:09;;;;;;;10.77;3.67;;;;;;;6.18;93.47;101059.75;4986489;28;20031;-66
2023/04/25 00:11:35;;;;;;;10.43;3.58;;;;;;;6.15;93.41;101057.03;4986252;28;20085;-65
2023/04/25 00:14:02;;;;;;;11.63;3.70;;;;;;;6.14;93.17;101055.25;4986547;28;20493;-65
2023/04/25 00:16:28;;;;;;;13.88;3.75;;;;;;;6.13;93.04;101069.03;4968611;28;20034;-65
2023/04/25 00:18:54;;;;;;;10.25;3.40;;;;;;;6.12;93.44;101067.25;4952589;28;20064;-65
2023/04/25 00:21:20;;;;;;;11.98;3.45;;;;;;;6.12;93.47;101075.00;4986460;28;20100;-65
2023/04/25 00:23:46;;;;;;;14.07;4.18;;;;;;;6.10;93.21;101069.75;5000059;28;20030;-66
2023/04/25 00:26:12;;;;;;;15.75;3.80;;;;;;;6.12;93.57;101078.47;4985729;28;20030;-65
2023/04/25 00:28:39;;;;;;;11.90;3.45;;;;;;;6.11;92.99;101081.84;4986155;28;20037;-65
2023/04/25 00:31:04;;;;;;;15.77;4.20;;;;;;;6.11;93.62;101076.69;4999545;28;20065;-65
2023/04/25 00:33:30;;;;;;;10.73;3.47;;;;;;;6.11;93.12;101070.63;4986149;28;20445;-65
2023/04/25 00:35:55;;;;;;;10.45;3.50;;;;;;;6.12;93.45;101072.41;4986606;28;20367;-65
2023/04/25 00:38:21;;;;;;;12.55;3.60;;;;;;;6.11;92.88;101066.34;4986201;28;20101;-65
2023/04/25 00:40:46;;;;;;;12.05;3.67;;;;;;;6.12;93.28;101067.25;4986061;28;20035;-65
2023/04/25 00:43:11;;;;;;;10.90;3.90;;;;;;;6.09;93.03;101063.69;4986044;28;20046;-65
2023/04/25 00:45:39;;;;;;;12.07;3.95;;;;;;;6.06;92.88;101062.66;4986362;28;20027;-65
2023/04/25 00:48:04;;;;;;;11.68;3.95;;;;;;;6.02;92.63;101060.75;4986208;28;20018;-65
2023/04/25 00:50:30;;;;;;;12.52;4.13;;;;;;;5.99;93.11;101064.09;4986035;28;20401;-65
2023/04/25 00:52:56;;;;;;;11.75;3.65;;;;;;;5.99;92.71;101069.25;4986218;28;20033;-65
2023/04/25 00:55:21;;;;;;;10.88;3.55;;;;;;;6.01;92.90;101064.16;4985753;28;20569;-65
2023/04/25 00:57:47;;;;;;;12.77;3.90;;;;;;;6.00;93.18;101068.44;4986139;28;20015;-65
2023/04/25 01:00:14;;;;;;;11.93;3.47;;;;;;;6.01;93.31;101075.41;4967368;28;20026;-65
2023/04/25 01:02:40;;;;;;;12.93;3.35;;;;;;;6.02;93.17;101071.97;4985928;28;20026;-65
2023/04/25 01:05:06;;;;;;;15.68;4.15;;;;;;;6.02;92.87;101073.69;4967688;28;20073;-65
2023/04/25 01:07:31;;;;;;;12.35;3.55;;;;;;;6.00;92.82;101065.88;4986096;28;20670;-65
2023/04/25 01:09:57;;;;;;;11.77;3.88;;;;;;;5.99;93.04;101070.97;4985965;28;20043;-65
2023/04/25 01:12:23;;;;;;;11.85;4.20;;;;;;;6.00;92.87;101062.41;4985875;28;20108;-65
2023/04/25 01:14:48;;;;;;;10.68;4.60;;;;;;;5.98;93.34;101059.75;4985766;28;20026;-65
2023/04/25 01:17:14;;;;;;;12.15;4.93;;;;;;;5.98;93.00;101076.94;4985874;28;20537;-65
2023/04/25 01:19:40;;;;;;;12.55;4.40;;;;;;;5.97;92.90;101077.72;4967517;28;20448;-65
2023/04/25 01:22:05;;;;;;;14.98;4.90;;;;;;;5.95;92.94;101076.78;4985878;28;20033;-65
2023/04/25 01:24:34;;;;;;;13.15;4.38;;;;;;;5.93;92.62;101079.28;4989984;28;20026;-65
2023/04/25 01:27:01;;;;;;;14.18;4.35;;;;;;;5.91;92.89;101081.81;4971285;28;20034;-65
2023/04/25 01:29:27;;;;;;;11.02;3.83;;;;;;;5.90;93.35;101084.31;4989110;28;20031;-65
2023/04/25 01:31:53;;;;;;;11.25;4.07;;;;;;;5.88;93.53;101075.59;4988846;28;20030;-65
2023/04/25 01:34:18;;;;;;;15.15;4.57;;;;;;;5.87;93.26;101085.06;4989109;28;20135;-65
2023/04/25 01:36:44;;;;;;;11.20;4.00;;;;;;;5.85;94.05;101083.22;4989300;28;21187;-65
2023/04/25 01:39:09;;;;;;;10.90;3.70;;;;;;;5.84;94.50;101084.06;4989394;28;20029;-65
2023/04/25 01:41:35;;;;;;;10.25;3.80;;;;;;;5.82;94.15;101083.97;4989270;28;20030;-65
2023/04/25 01:44:01;;;;;;;12.75;3.92;;;;;;;5.81;94.58;101091.63;4989137;28;20516;-65
2023/04/25 01:46:27;;;;;;;15.18;4.05;;;;;;;5.77;94.89;101085.44;4989301;28;20038;-65
2023/04/25 01:48:53;;;;;;;12.38;4.13;;;;;;;5.75;94.99;101089.69;4989427;28;20026;-65
2023/04/25 01:51:19;;;;;;;12.45;4.00;;;;;;;5.70;95.23;101089.44;4989233;28;20421;-66
2023/04/25 01:53:44;;;;;;;9.98;3.70;;;;;;;5.66;94.76;101087.56;4989415;28;20037;-65
2023/04/25 01:56:10;;;;;;;14.65;3.88;;;;;;;5.66;94.73;101087.56;4989184;28;20448;-65
2023/04/25 01:58:35;;;;;;;14.65;4.72;;;;;;;5.67;94.77;101093.59;4989583;28;20030;-65
2023/04/25 02:01:00;;;;;;;12.52;4.13;;;;;;;5.67;95.05;101086.72;4989072;28;20026;-65
2023/04/25 02:03:26;;;;;;;12.88;4.30;;;;;;;5.68;95.16;101096.25;4988906;28;20030;-65
2023/04/25 02:05:51;;;;;;;10.90;4.60;;;;;;;5.69;95.20;101098.03;4988974;28;20301;-65
2023/04/25 02:08:18;;;;;;;16.02;4.40;;;;;;;5.70;95.10;101097.19;4989009;28;20019;-65
2023/04/25 02:10:43;;;;;;;13.07;4.32;;;;;;;5.69;94.25;101103.19;4970617;28;20387;-65
2023/04/25 02:13:09;;;;;;;13.35;4.70;;;;;;;5.68;94.38;101103.13;4988739;28;20033;-65
2023/04/25 02:15:34;;;;;;;14.95;5.13;;;;;;;5.62;93.94;101107.97;4988792;28;20038;-65
2023/04/25 02:18:02;;;;;;;10.95;4.95;;;;;;;5.57;94.04;101112.94;4988913;28;20057;-65
2023/04/25 02:20:29;;;;;;;15.68;5.18;;;;;;;5.52;94.19;101119.59;4988559;28;20034;-65
2023/04/25 02:22:54;;;;;;;18.02;4.57;;;;;;;5.46;94.15;101108.94;4988439;28;20172;-65
2023/04/25 02:25:20;;;;;;;12.43;4.88;;;;;;;5.43;93.89;101108.81;4988867;28;20129;-65
2023/04/25 02:27:46;;;;;;;11.98;4.20;;;;;;;5.39;94.11;101110.38;4988718;28;20601;-66
2023/04/25 02:30:12;;;;;;;13.13;4.20;;;;;;;5.37;93.95;101110.28;4988498;28;20030;-65
2023/04/25 02:32:38;;;;;;;12.23;4.38;;;;;;;5.36;93.98;101111.09;4988406;28;20041;-65
2023/04/25 02:35:04;;;;;;;12.00;4.63;;;;;;;5.35;93.53;101116.19;4969633;28;20045;-65
2023/04/25 02:37:31;;;;;;;12.98;3.90;;;;;;;5.34;93.92;101110.13;4988309;28;20092;-65
2023/04/25 02:39:56;;;;;;;10.80;4.07;;;;;;;5.32;93.43;101116.03;4988303;28;20069;-65
2023/04/25 02:42:21;;;;;;;15.00;4.32;;;;;;;5.30;93.58;101115.97;4969469;28;20030;-65
2023/04/25 02:44:47;;;;;;;10.93;4.13;;;;;;;5.26;93.81;101108.88;4988286;28;20022;-65
2023/04/25 02:47:12;;;;;;;15.48;3.90;;;;;;;5.22;93.29;101114.69;4988009;28;20517;-65
2023/04/25 02:49:37;;;;;;;13.02;4.30;;;;;;;5.19;93.37;101119.72;4987317;28;20038;-65
2023/04/25 02:52:03;;;;;;;12.55;4.32;;;;;;;5.16;92.96;101114.41;4988035;28;20050;-66
2023/04/25 02:54:28;;;;;;;14.80;4.07;;;;;;;5.14;93.54;101116.91;4987761;28;20383;-65
2023/04/25 02:56:53;;;;;;;15.63;4.30;;;;;;;5.13;93.61;101112.53;4988092;28;20117;-65
2023/04/25 02:59:19;;;;;;;11.65;4.47;;;;;;;5.09;93.50;101118.34;4987628;28;20477;-65
2023/04/25 03:01:45;;;;;;;13.88;4.50;;;;;;;5.07;93.32;101120.00;4969313;28;20030;-65
2023/04/25 03:04:10;;;;;;;15.55;4.50;;;;;;;5.06;93.38;101113.03;4987483;28;20026;-65
2023/04/25 03:06:35;;;;;;;13.43;4.65;;;;;;;5.02;93.34;101111.97;4987469;28;20028;-65
2023/04/25 03:09:01;;;;;;;11.82;3.88;;;;;;;4.99;93.68;101111.84;4987448;28;20029;-66
2023/04/25 03:11:27;;;;;;;13.80;4.70;;;;;;;4.97;93.41;101123.78;4987369;28;20073;-65
2023/04/25 03:13:52;;;;;;;10.27;4.18;;;;;;;4.95;93.70;101120.22;4987262;28;20459;-65
2023/04/25 03:16:17;;;;;;;14.52;4.50;;;;;;;4.95;93.65;101121.94;4987249;28;20576;-65
2023/04/25 03:18:43;;;;;;;11.95;4.45;;;;;;;4.93;93.60;101121.00;5001112;28;20030;-66
2023/04/25 03:21:08;;;;;;;13.27;4.03;;;;;;;4.91;93.65;101120.00;4968809;28;20393;-65
2023/04/25 03:23:33;;;;;;;14.23;4.68;;;;;;;4.93;93.53;101131.31;4987387;28;20122;-65
2023/04/25 03:25:59;;;;;;;10.43;3.80;;;;;;;4.92;93.79;101126.94;4987308;28;20034;-65
2023/04/25 03:28:25;;;;;;;15.93;4.65;;;;;;;4.90;94.35;101126.88;4986788;28;20026;-65
2023/04/25 03:30:50;;;;;;;14.20;4.72;;;;;;;4.92;94.48;101125.25;4986400;28;20025;-65
2023/04/25 03:33:15;;;;;;;14.20;4.43;;;;;;;4.94;94.46;101123.66;4987283;28;20117;-65
2023/04/25 03:35:42;;;;;;;14.77;4.78;;;;;;;4.95;94.67;101130.56;4986543;28;20080;-65
2023/04/25 03:38:07;;;;;;;15.80;4.25;;;;;;;4.97;94.75;101125.50;4986590;28;20022;-65
2023/04/25 03:40:33;;;;;;;16.98;4.80;;;;;;;4.98;94.58;101115.25;4986091;28;20495;-66
2023/04/25 03:42:58;;;;;;;11.95;4.35;;;;;;;4.99;94.80;101127.31;4986518;28;20054;-65
2023/04/25 03:45:23;;;;;;;16.17;4.80;;;;;;;5.03;95.19;101118.06;4985751;28;20048;-65
2023/04/25 03:47:49;;;;;;;13.00;4.75;;;;;;;5.05;94.69;101122.50;4986692;28;20485;-65
2023/04/25 03:50:14;;;;;;;16.05;4.82;;;;;;;5.09;95.27;101122.66;4986439;28;20034;-65
2023/04/25 03:52:40;;;;;;;12.82;4.07;;;;;;;5.11;95.19;101118.44;4986660;28;20026;-65
2023/04/25 03:55:05;;;;;;;13.05;5.00;;;;;;;5.14;94.83;101121.16;4986177;28;20065;-66
2023/04/25 03:57:31;;;;;;;15.07;4.80;;;;;;;5.14;94.98;101124.66;4985932;28;20030;-65
2023/04/25 03:59:56;;;;;;;15.82;4.38;;;;;;;5.15;94.96;101122.94;4986138;28;20100;-65
2023/04/25 04:02:22;;;;;;;25.27;14.57;;;;;;;5.12;94.84;101118.50;5050635;22;20068;-93
2023/04/25 04:04:47;;;;;;;140.23;67.45;;;;;;;5.13;95.04;101125.44;5026071;28;20025;-93
2023/04/25 04:07:13;;;;;;;16.75;5.78;;;;;;;5.13;95.16;101132.31;5019761;28;20375;-93
2023/04/25 04:09:38;;;;;;;13.52;4.70;;;;;;;5.12;95.39;101134.00;5008451;28;20053;-92
2023/04/25 04:12:04;;;;;;;16.20;4.78;;;;;;;5.11;95.33;101144.25;5008640;28;20488;-93
2023/04/25 04:14:29;;;;;;;13.40;4.43;;;;;;;5.11;95.31;101142.56;5008975;28;20478;-94
2023/04/25 04:16:54;;;;;;;13.93;4.50;;;;;;;5.11;95.47;101141.69;5010796;28;20608;-93
2023/04/25 04:19:20;;;;;;;16.35;4.50;;;;;;;5.08;95.82;101149.28;5027998;28;20033;-94
2023/04/25 04:21:48;;;;;;;14.43;5.05;;;;;;;5.05;96.59;101152.59;5008880;28;20033;-93
2023/04/25 04:24:14;;;;;;;15.45;4.47;;;;;;;5.02;96.04;101152.44;5008867;28;20041;-94
2023/04/25 04:26:40;;;;;;;15.98;4.50;;;;;;;5.00;95.83;101148.91;5042774;28;20080;-93
2023/04/25 04:29:06;;;;;;;14.23;4.15;;;;;;;5.00;96.53;101148.91;5025392;28;20041;-93
2023/04/25 04:31:32;;;;;;;10.68;4.00;;;;;;;5.02;96.15;101152.44;5012036;28;20013;-96
2023/04/25 04:34:01;;;;;;;15.60;4.18;;;;;;;5.01;96.66;101156.72;5009138;28;20501;-96
2023/04/25 04:36:27;;;;;;;14.00;4.30;;;;;;;5.02;95.94;101153.31;5008626;28;20052;-96
2023/04/25 04:38:53;;;;;;;18.13;4.70;;;;;;;5.03;96.29;101159.38;5042742;28;20033;-96
2023/04/25 04:41:19;;;;;;;14.23;4.32;;;;;;;5.03;96.32;101162.84;5012671;28;20550;-96
2023/04/25 04:43:44;;;;;;;12.82;4.18;;;;;;;5.05;96.21;101165.50;5009341;28;20152;-94
2023/04/25 04:46:12;;;;;;;14.05;4.10;;;;;;;5.05;96.37;101165.50;5008321;28;20025;-96
2023/04/25 04:48:39;;;;;;;11.98;3.90;;;;;;;5.08;96.25;101167.34;5004439;28;20025;-96
2023/04/25 04:51:05;;;;;;;12.35;4.00;;;;;;;5.08;96.28;101162.19;5006316;28;20029;-95
2023/04/25 04:53:30;;;;;;;11.55;4.13;;;;;;;5.07;95.68;101174.22;5007986;28;20483;-96
2023/04/25 04:55:55;;;;;;;11.75;4.00;;;;;;;5.09;95.54;101176.88;5023671;28;20033;-96
2023/04/25 04:58:21;;;;;;;9.20;4.10;;;;;;;5.11;94.97;101180.41;5040035;23;20590;-68
2023/04/25 05:00:46;;;;;;;13.20;4.22;;;;;;;5.11;94.68;101183.00;5015103;28;20460;-68
2023/04/25 05:03:12;;;;;;;17.10;4.47;;;;;;;5.10;94.57;101184.72;5016971;28;20507;-69
2023/04/25 05:05:39;;;;;;;15.48;3.92;;;;;;;5.11;94.51;101183.88;5017001;28;20516;-68
2023/04/25 05:08:05;;;;;;;12.57;3.90;;;;;;;5.12;94.58;101189.97;5016670;28;20029;-69
2023/04/25 05:10:31;;;;;;;18.48;4.68;;;;;;;5.13;95.14;101202.06;5015112;28;20027;-68
2023/04/25 05:12:56;;;;;;;14.32;3.92;;;;;;;5.13;95.17;101202.94;5015367;28;20029;-68
2023/04/25 05:15:21;;;;;;;12.15;4.20;;;;;;;5.17;95.44;101211.72;5015109;28;20029;-68
2023/04/25 05:17:46;;;;;;;12.63;3.90;;;;;;;5.21;95.42;101211.06;5015616;28;20405;-70
2023/04/25 05:20:13;;;;;;;13.68;3.72;;;;;;;5.22;96.32;101208.56;5016788;28;20515;-70
2023/04/25 05:22:39;;;;;;;11.93;3.80;;;;;;;5.24;96.43;101213.81;5015155;28;20037;-70
2023/04/25 05:25:05;;;;;;;11.85;3.78;;;;;;;5.25;95.82;101207.84;5018356;28;20033;-70
2023/04/25 05:27:30;;;;;;;13.80;4.68;;;;;;;5.29;95.32;101220.13;5018393;28;20057;-70
2023/04/25 05:29:55;;;;;;;16.05;4.25;;;;;;;5.32;95.92;101219.41;5016219;28;20021;-70
2023/04/25 05:32:21;;;;;;;11.30;4.00;;;;;;;5.34;96.22;101222.94;5016749;28;20033;-70
2023/04/25 05:34:46;;;;;;;12.75;4.32;;;;;;;5.36;95.42;101222.19;5018236;28;20583;-70
2023/04/25 05:37:11;;;;;;;9.80;3.88;;;;;;;5.40;96.27;101223.22;5018269;28;20488;-70
2023/04/25 05:39:37;;;;;;;14.27;4.18;;;;;;;5.46;96.75;101225.25;5017675;28;20026;-70
2023/04/25 05:42:03;;;;;;;12.40;4.35;;;;;;;5.51;96.99;101226.38;5017995;28;20037;-70
2023/04/25 05:44:30;;;;;;;16.10;4.50;;;;;;;5.56;97.27;101223.22;5018115;28;20022;-70
2023/04/25 05:46:55;;;;;;;13.27;4.28;;;;;;;5.64;96.67;101228.75;5018156;28;20612;-70
2023/04/25 05:49:20;;;;;;;19.52;4.78;;;;;;;5.72;96.54;101234.28;5010968;28;20117;-70
2023/04/25 05:51:46;;;;;;;16.08;5.28;;;;;;;5.78;96.35;101234.63;4998463;28;20486;-70
2023/04/25 05:54:11;;;;;;;19.35;5.25;;;;;;;5.85;96.24;101243.53;4998289;28;20591;-70
2023/04/25 05:56:36;;;;;;;18.73;4.57;;;;;;;5.88;96.16;101249.78;4998651;28;20041;-70
2023/04/25 05:59:02;;;;;;;14.20;4.65;;;;;;;5.92;95.53;101250.78;4998122;28;20564;-70
2023/04/25 06:01:28;;;;;;;14.68;4.78;;;;;;;5.93;95.03;101256.03;4998523;28;20096;-70
2023/04/25 06:03:53;;;;;;;12.75;4.50;;;;;;;5.97;95.78;101258.78;4998073;28;20486;-70
2023/04/25 06:06:18;;;;;;;13.38;4.45;;;;;;;6.02;95.52;101262.53;4997776;28;20105;-70
2023/04/25 06:08:44;;;;;;;15.35;4.50;;;;;;;6.04;95.03;101266.06;4997042;28;20796;-70
2023/04/25 06:11:10;;;;;;;12.93;4.88;;;;;;;6.06;95.77;101270.50;4997574;28;20030;-70
2023/04/25 06:13:35;;;;;;;13.07;4.70;;;;;;;6.10;95.34;101276.72;4997848;28;20063;-70
2023/04/25 06:16:00;;;;;;;14.63;4.90;;;;;;;6.14;95.47;101281.25;4997991;28;20037;-70
2023/04/25 06:18:25;;;;;;;13.25;4.45;;;;;;;6.17;94.87;101272.72;4998089;28;20034;-70
2023/04/25 06:20:51;;;;;;;13.50;4.60;;;;;;;6.17;93.32;101267.53;4997342;28;20038;-70
2023/04/25 06:23:16;;;;;;;13.82;4.32;;;;;;;6.14;92.62;101272.56;4998006;28;20671;-70
2023/04/25 06:25:41;;;;;;;10.43;3.60;;;;;;;6.12;92.13;101274.22;4997467;28;20405;-70
2023/04/25 06:28:06;;;;;;;10.80;3.53;;;;;;;6.12;92.48;101274.22;5005151;28;20022;-70
2023/04/25 06:30:32;;;;;;;14.60;4.50;;;;;;;6.16;91.23;101282.19;4997040;28;20022;-70
2023/04/25 06:32:57;;;;;;;11.38;4.10;;;;;;;6.26;91.44;101275.75;4997822;28;20026;-70
2023/04/25 06:35:22;;;;;;;13.00;3.78;;;;;;;6.34;89.80;101274.41;4996247;28;20035;-70
2023/04/25 06:37:48;;;;;;;13.25;3.80;;;;;;;6.42;89.01;101274.78;4998137;28;20026;-70
2023/04/25 06:40:13;;;;;;;13.93;3.60;;;;;;;6.50;88.84;101278.59;4997538;28;20031;-70
2023/04/25 06:42:38;;;;;;;15.98;4.15;;;;;;;6.63;87.30;101284.38;4997320;28;20025;-70
2023/04/25 06:45:04;;;;;;;12.70;3.90;;;;;;;6.70;88.01;101287.31;4997450;28;20144;-70
2023/04/25 06:47:29;;;;;;;11.68;3.67;;;;;;;6.77;88.24;101291.97;4997326;28;20513;-70
2023/04/25 06:49:55;;;;;;;11.95;4.10;;;;;;;6.87;88.03;101297.59;4997237;28;20018;-70
2023/04/25 06:52:20;;;;;;;12.20;3.10;;;;;;;6.95;86.38;101303.97;4996904;28;20026;-70
2023/04/25 06:54:46;;;;;;;8.75;2.67;;;;;;;7.02;85.97;101297.38;4995478;28;20029;-70
2023/04/25 06:57:11;;;;;;;9.30;3.13;;;;;;;7.10;85.97;101309.88;4997102;28;20022;-70
2023/04/25 06:59:36;;;;;;;14.13;3.08;;;;;;;7.19;84.67;101300.75;4997023;28;20103;-70
2023/04/25 07:02:02;;;;;;;9.90;3.10;;;;;;;7.28;84.66;101301.13;4997046;28;20037;-70
2023/04/25 07:04:27;;;;;;;9.10;2.55;;;;;;;7.37;84.11;101298.97;4996863;28;20478;-70
2023/04/25 07:06:52;;;;;;;8.68;2.75;;;;;;;7.53;83.72;101295.34;4996450;28;20560;-70
2023/04/25 07:09:18;;;;;;;10.88;3.20;;;;;;;7.64;81.23;101293.19;4996825;28;20030;-70
2023/04/25 07:11:43;;;;;;;6.97;2.28;;;;;;;7.74;81.31;101297.06;4997287;28;20014;-70
2023/04/25 07:14:08;;;;;;;11.05;2.95;;;;;;;7.86;82.46;101305.34;4996727;28;20084;-70
2023/04/25 07:16:34;;;;;;;9.40;2.25;;;;;;;7.92;80.51;101305.63;4996551;28;20038;-70
2023/04/25 07:18:59;;;;;;;8.02;2.17;;;;;;;8.02;80.76;101306.88;4995642;28;20543;-70
2023/04/25 07:21:25;;;;;;;6.20;2.22;;;;;;;8.11;81.37;101312.47;4995323;28;20466;-70
2023/04/25 07:23:50;;;;;;;8.80;2.60;;;;;;;8.19;80.55;101313.66;4996600;28;20057;-70
2023/04/25 07:26:16;;;;;;;9.95;2.50;;;;;;;8.29;80.92;101320.09;4997018;28;20105;-70
2023/04/25 07:28:42;;;;;;;9.15;2.55;;;;;;;8.41;80.21;101326.63;4996258;28;20029;-70
2023/04/25 07:31:07;;;;;;;9.13;2.30;;;;;;;8.46;78.23;101332.94;4996445;28;20405;-70
2023/04/25 07:33:33;;;;;;;9.32;2.13;;;;;;;8.52;79.40;101328.84;4996249;28;20029;-70
2023/04/25 07:35:58;;;;;;;7.50;2.22;;;;;;;8.65;79.58;101331.94;4996006;28;20056;-70
2023/04/25 07:38:24;;;;;;;7.45;2.40;;;;;;;8.80;78.28;101335.13;4995186;28;20413;-70
2023/04/25 07:40:49;;;;;;;7.47;2.40;;;;;;;8.96;76.95;101335.72;4994914;28;20033;-70
2023/04/25 07:43:16;;;;;;;7.47;2.42;;;;;;;9.07;77.23;101341.31;4995688;28;20025;-70
2023/04/25 07:45:45;;;;;;;8.05;1.90;;;;;;;9.03;76.08;101346.41;4996159;28;20029;-70
2023/04/25 07:48:11;;;;;;;7.97;2.60;;;;;;;8.95;75.82;101352.13;4996151;28;20037;-70
2023/04/25 07:50:36;;;;;;;7.47;1.90;;;;;;;8.87;74.83;101349.25;4994698;28;20022;-70
2023/04/25 07:53:01;;;;;;;8.10;2.38;;;;;;;8.95;76.93;101349.53;4994597;28;20033;-70
2023/04/25 07:55:27;;;;;;;5.90;1.85;;;;;;;9.12;76.97;101340.66;4995739;28;20029;-70
2023/04/25 07:57:52;;;;;;;6.78;1.80;;;;;;;9.33;77.65;101350.13;4994114;28;20030;-70
2023/04/25 08:00:18;;;;;;;7.80;2.28;;;;;;;9.57;77.51;101353.59;4995822;28;20037;-70
2023/04/25 08:02:43;;;;;;;7.65;2.25;;;;;;;9.70;73.51;101356.63;4996284;28;21052;-70
2023/04/25 08:05:11;;;;;;;10.40;2.67;;;;;;;9.66;71.77;101354.75;4994266;28;20030;-70
2023/04/25 08:07:37;;;;;;;8.30;2.90;;;;;;;9.54;73.29;101363.00;4994656;28;20144;-70
2023/04/25 08:10:03;;;;;;;9.32;2.20;;;;;;;9.51;73.47;101363.75;4995254;28;20067;-70
2023/04/25 08:12:28;;;;;;;8.88;2.10;;;;;;;9.56;74.80;101366.56;4995375;28;20064;-70
2023/04/25 08:14:53;;;;;;;9.27;2.22;;;;;;;9.57;75.20;101370.91;4995717;28;20021;-70
2023/04/25 08:17:18;;;;;;;8.23;2.00;;;;;;;9.50;73.01;101374.13;4995946;28;20034;-70
2023/04/25 08:19:44;;;;;;;9.25;2.50;;;;;;;9.45;73.03;101380.88;4996143;28;20025;-70
2023/04/25 08:22:09;;;;;;;10.45;2.30;;;;;;;9.40;73.38;101375.53;4994236;28;20477;-70
2023/04/25 08:24:34;;;;;;;5.28;2.10;;;;;;;9.41;74.76;101382.47;4993627;28;20089;-70
2023/04/25 08:27:00;;;;;;;9.23;2.53;;;;;;;9.43;74.87;101390.31;4995375;28;20489;-70
2023/04/25 08:29:25;;;;;;;8.15;2.50;;;;;;;9.46;74.52;101391.34;4995234;28;20092;-70
2023/04/25 08:31:52;;;;;;;9.38;2.55;;;;;;;9.50;74.27;101390.63;4993844;28;20684;-70
2023/04/25 08:34:18;;;;;;;8.57;2.50;;;;;;;9.51;74.32;101394.97;4993557;28;20033;-70
2023/04/25 08:36:43;;;;;;;7.68;2.10;;;;;;;9.49;74.08;101394.06;4994957;28;20037;-70
2023/04/25 08:39:08;;;;;;;9.07;2.00;;;;;;;9.46;72.76;101398.25;4995081;28;20024;-70
2023/04/25 08:41:36;;;;;;;8.95;2.50;;;;;;;9.44;74.50;101413.78;4994528;28;20485;-70
2023/04/25 08:44:05;;;;;;;9.38;2.30;;;;;;;9.43;73.35;101401.63;4995765;28;20053;-70
2023/04/25 08:46:31;;;;;;;8.52;2.70;;;;;;;9.44;73.60;101412.91;4995086;28;20498;-70
2023/04/25 08:49:00;;;;;;;7.38;2.40;;;;;;;9.44;73.08;101415.53;4993620;28;20405;-70
2023/04/25 08:51:27;;;;;;;;;;;;;;;9.53;75.65;101406.34;4995374;28;20030;-70
2023/04/25 08:53:53;;;;;;;8.80;2.53;;;;;;;9.56;75.06;101423.78;4995501;28;19913;-69
2023/04/25 08:56:23;;;;;;;8.55;2.60;;;;;;;9.64;76.90;101421.47;4994897;28;20484;-70
2023/04/25 08:58:50;;;;;;;;;;;;;;;9.76;77.39;101424.50;5011195;28;20042;-70
2023/04/25 09:01:15;;;;;;;7.50;2.22;;;;;;;9.75;75.35;101435.75;4994421;28;20443;-70
2023/04/25 09:03:41;;;;;;;9.02;2.45;;;;;;;9.80;74.72;101436.78;4995080;28;20025;-70
2023/04/25 09:06:08;;;;;;;8.73;2.63;;;;;;;9.81;75.48;101443.78;4994599;28;20118;-70
2023/04/25 09:08:33;;;;;;;8.80;2.13;;;;;;;9.84;74.82;101456.91;4995209;28;20022;-70
2023/04/25 09:10:58;;;;;;;8.02;2.30;;;;;;;9.87;72.35;101454.41;4995040;28;20019;-70
2023/04/25 09:13:26;;;;;;;9.40;1.90;;;;;;;9.93;72.91;101458.94;4995126;28;20083;-70
2023/04/25 09:15:56;;;;;;;6.88;1.75;;;;;;;10.03;70.66;101470.59;5002211;28;20041;-70
2023/04/25 09:18:25;;;;;;;5.80;1.92;;;;;;;10.15;69.38;101471.00;4995059;28;20030;-70
2023/04/25 09:20:52;;;;;;;5.97;1.70;;;;;;;10.22;69.76;101465.19;4994912;28;20030;-70
2023/04/25 09:23:20;;;;;;;7.53;2.05;;;;;;;10.41;70.94;101474.59;4994478;28;20025;-70
2023/04/25 09:25:48;;;;;;;8.70;1.92;;;;;;;10.71;68.91;101468.63;4994325;28;20485;-70
2023/04/25 09:28:13;;;;;;;6.93;1.92;;;;;;;10.98;70.73;101464.25;4994696;28;20040;-70
2023/04/25 09:30:38;;;;;;;6.00;1.90;;;;;;;11.13;68.48;101475.16;4994601;28;20019;-70
2023/04/25 09:33:08;;;;;;;8.90;1.92;;;;;;;11.07;65.59;101473.25;4993453;28;20023;-70
2023/04/25 09:35:38;;;;;;;7.55;1.80;;;;;;;11.08;68.67;101476.72;4994915;28;20096;-70
2023/04/25 09:38:18;;;;;;;9.15;2.30;;;;;;;11.11;67.73;101474.25;4994689;28;20037;-70
2023/04/25 09:40:45;;;;;;;8.02;2.50;;;;;;;11.19;67.46;101477.97;4994287;28;20401;-70
2023/04/25 09:43:21;;;;;;;7.38;2.55;;;;;;;11.23;68.07;101479.84;5002675;28;20029;-70
2023/04/25 09:45:47;;;;;;;8.98;2.90;;;;;;;11.19;67.60;101477.97;4998488;28;20029;-70
2023/04/25 09:48:22;;;;;;;7.28;2.72;;;;;;;11.12;67.78;101486.44;4998396;28;20026;-70
2023/04/25 09:51:16;;;;;;;8.60;2.70;;;;;;;11.03;67.81;101487.03;4997504;28;20077;-70
2023/04/25 09:53:52;;;;;;;9.40;3.03;;;;;;;10.93;66.80;101495.38;4998556;28;20486;-70
2023/04/25 09:56:19;;;;;;;10.85;2.80;;;;;;;10.93;67.15;101479.75;4998633;28;20046;-70
2023/04/25 09:58:46;;;;;;;6.80;2.30;;;;;;;10.92;67.88;101484.09;4998119;28;20054;-70
2023/04/25 10:01:12;;;;;;;6.07;1.70;;;;;;;10.94;60.62;101498.03;4997908;28;20029;-70
2023/04/25 10:03:39;;;;;;;7.05;1.90;;;;;;;10.98;64.98;101495.53;4998168;28;20053;-70
2023/04/25 10:06:12;;;;;;;6.35;2.25;;;;;;;11.10;66.49;101494.22;4996545;28;20029;-70
2023/04/25 10:08:38;;;;;;;5.38;2.00;;;;;;;11.09;64.05;101488.94;4998619;28;20030;-70
2023/04/25 10:11:05;;;;;;;5.82;1.75;;;;;;;11.24;64.33;101485.94;4998098;28;20686;-70
2023/04/25 10:13:32;;;;;;;6.57;1.60;;;;;;;11.52;63.35;101487.66;4997627;28;20147;-70
2023/04/25 10:15:59;;;;;;;7.00;1.77;;;;;;;11.75;63.67;101495.31;4997447;28;20495;-70
2023/04/25 10:18:28;;;;;;;5.28;1.50;;;;;;;11.92;63.48;101488.84;4997514;28;20033;-70
2023/04/25 10:21:00;;;;;;;4.25;1.50;;;;;;;12.08;63.88;101494.50;4997485;28;20092;-70
2023/04/25 10:23:27;;;;;;;5.20;1.50;;;;;;;12.23;61.30;101487.09;4997927;28;20568;-70
2023/04/25 10:25:53;;;;;;;5.07;1.70;;;;;;;12.42;63.12;101485.00;4997958;28;20057;-70
2023/04/25 10:28:19;;;;;;;4.63;1.48;;;;;;;12.62;61.19;101481.16;4997519;28;20022;-70
2023/04/25 10:30:58;;;;;;;6.28;1.50;;;;;;;12.79;57.01;101475.44;4997767;28;20025;-70
2023/04/25 10:33:42;;;;;;;6.32;1.80;;;;;;;12.89;64.00;101487.94;4997533;28;20026;-70
2023/04/25 10:36:18;;;;;;;4.43;1.50;;;;;;;12.95;59.92;101493.31;4996795;28;20437;-69
2023/04/25 10:38:44;;;;;;;4.78;1.70;;;;;;;12.72;59.02;101494.47;4997172;28;20049;-70
2023/04/25 10:41:11;;;;;;;5.80;1.40;;;;;;;12.52;58.24;101494.84;4997339;28;20041;-70
2023/04/25 10:43:37;;;;;;;4.40;1.40;;;;;;;12.39;58.11;101496.25;4996003;28;20072;-70
2023/04/25 10:46:24;;;;;;;4.93;1.48;;;;;;;12.27;58.72;101501.16;4997520;28;20026;-70
2023/04/25 10:48:51;;;;;;;4.15;1.33;;;;;;;12.20;59.51;101504.44;4997470;28;20037;-70
2023/04/25 10:51:34;;;;;;;3.33;1.30;;;;;;;12.13;59.18;101498.16;4996736;28;20025;-70
2023/04/25 10:54:06;;;;;;;5.47;1.25;;;;;;;11.97;60.46;101492.47;4997521;28;20105;-70
2023/04/25 10:56:44;;;;;;;5.20;1.75;;;;;;;11.78;59.51;101500.63;4995603;28;20104;-71
2023/04/25 10:59:18;;;;;;;6.57;2.10;;;;;;;11.54;60.65;101511.19;4997102;28;20042;-70
2023/04/25 11:01:44;;;;;;;5.60;1.60;;;;;;;11.31;60.03;101499.22;4996771;28;20025;-70
2023/04/25 11:04:24;;;;;;;5.20;1.52;;;;;;;11.12;61.35;101512.50;4997007;28;20026;-70
2023/04/25 11:07:04;;;;;;;4.68;1.77;;;;;;;11.00;61.99;101507.78;4997063;28;20593;-70
2023/04/25 11:09:30;;;;;;;6.78;1.75;;;;;;;10.93;64.13;101511.94;4996626;28;20064;-70
2023/04/25 11:11:59;;;;;;;6.70;1.80;;;;;;;10.92;63.01;101514.47;4996936;28;20069;-70
2023/04/25 11:14:25;;;;;;;4.13;1.55;;;;;;;10.92;63.24;101517.06;4996662;28;20025;-70
2023/04/25 11:16:57;;;;;;;4.78;1.50;;;;;;;10.82;63.42;101515.91;4996908;28;20056;-70
2023/04/25 11:19:24;;;;;;;7.82;1.60;;;;;;;10.62;63.00;101523.03;4996043;28;20068;-70
2023/04/25 11:21:50;;;;;;;4.85;1.40;;;;;;;10.46;65.33;101533.75;4995571;28;20454;-70
2023/04/25 11:24:19;;;;;;;7.88;1.70;;;;;;;10.39;63.29;101530.06;4996397;28;20061;-70